sensor_id;sensor_type;location;lat;lon;timestamp;P1;durP1;ratioP1;P2;durP2;ratioP2
69534;SDS011;56754;51.568;5.048;2023-04-15T00:01:50;6.00;;;2.20;;
69534;SDS011;56754;51.568;5.048;2023-04-15T00:04:15;7.00;;;2.03;;
69534;SDS011;56754;51.568;5.048;2023-04-15T00:06:43;5.10;;;2.07;;
69534;SDS011;56754;51.568;5.048;2023-04-15T00:09:14;9.10;;;2.33;;
69534;SDS011;56754;51.568;5.048;2023-04-15T00:11:40;7.43;;;2.30;;
69534;SDS011;56754;51.568;5.048;2023-04-15T00:14:05;7.07;;;2.07;;
69534;SDS011;56754;51.568;5.048;2023-04-15T00:16:30;7.68;;;2.30;;
69534;SDS011;56754;51.568;5.048;2023-04-15T00:18:56;6.33;;;2.00;;
69534;SDS011;56754;51.568;5.048;2023-04-15T00:21:21;7.23;;;1.97;;
69534;SDS011;56754;51.568;5.048;2023-04-15T00:23:46;5.67;;;1.77;;
69534;SDS011;56754;51.568;5.048;2023-04-15T00:26:12;7.67;;;2.70;;
69534;SDS011;56754;51.568;5.048;2023-04-15T00:28:37;6.90;;;1.87;;
69534;SDS011;56754;51.568;5.048;2023-04-15T00:31:02;5.78;;;2.03;;
69534;SDS011;56754;51.568;5.048;2023-04-15T00:33:28;6.17;;;2.00;;
69534;SDS011;56754;51.568;5.048;2023-04-15T00:35:53;6.33;;;2.10;;
69534;SDS011;56754;51.568;5.048;2023-04-15T00:38:18;5.67;;;2.20;;
69534;SDS011;56754;51.568;5.048;2023-04-15T00:40:44;8.13;;;2.70;;
69534;SDS011;56754;51.568;5.048;2023-04-15T00:43:09;7.53;;;2.00;;
69534;SDS011;56754;51.568;5.048;2023-04-15T00:45:35;5.83;;;2.50;;
69534;SDS011;56754;51.568;5.048;2023-04-15T00:48:00;5.80;;;2.20;;
69534;SDS011;56754;51.568;5.048;2023-04-15T00:50:26;7.70;;;2.25;;
69534;SDS011;56754;51.568;5.048;2023-04-15T00:52:51;6.33;;;2.40;;
69534;SDS011;56754;51.568;5.048;2023-04-15T00:55:16;6.30;;;2.07;;
69534;SDS011;56754;51.568;5.048;2023-04-15T00:57:42;6.50;;;2.27;;
69534;SDS011;56754;51.568;5.048;2023-04-15T01:00:08;6.80;;;2.38;;
69534;SDS011;56754;51.568;5.048;2023-04-15T01:02:34;6.57;;;2.40;;
69534;SDS011;56754;51.568;5.048;2023-04-15T01:05:00;6.85;;;2.10;;
69534;SDS011;56754;51.568;5.048;2023-04-15T01:07:25;6.47;;;2.20;;
69534;SDS011;56754;51.568;5.048;2023-04-15T01:09:51;7.07;;;2.30;;
69534;SDS011;56754;51.568;5.048;2023-04-15T01:12:17;6.00;;;2.40;;
69534;SDS011;56754;51.568;5.048;2023-04-15T01:14:44;7.27;;;2.60;;
69534;SDS011;56754;51.568;5.048;2023-04-15T01:17:09;6.97;;;2.53;;
69534;SDS011;56754;51.568;5.048;2023-04-15T01:19:37;5.23;;;2.27;;
69534;SDS011;56754;51.568;5.048;2023-04-15T01:22:03;5.70;;;2.30;;
69534;SDS011;56754;51.568;5.048;2023-04-15T01:24:28;5.90;;;2.13;;
69534;SDS011;56754;51.568;5.048;2023-04-15T01:26:55;7.30;;;2.25;;
69534;SDS011;56754;51.568;5.048;2023-04-15T01:29:20;7.23;;;2.50;;
69534;SDS011;56754;51.568;5.048;2023-04-15T01:31:49;5.00;;;2.00;;
69534;SDS011;56754;51.568;5.048;2023-04-15T01:34:19;6.72;;;2.30;;
69534;SDS011;56754;51.568;5.048;2023-04-15T01:36:44;6.37;;;2.30;;
69534;SDS011;56754;51.568;5.048;2023-04-15T01:39:10;8.03;;;2.50;;
69534;SDS011;56754;51.568;5.048;2023-04-15T01:41:35;6.80;;;2.40;;
69534;SDS011;56754;51.568;5.048;2023-04-15T01:44:01;9.10;;;2.73;;
69534;SDS011;56754;51.568;5.048;2023-04-15T01:46:26;6.20;;;2.43;;
69534;SDS011;56754;51.568;5.048;2023-04-15T01:48:51;8.53;;;2.57;;
69534;SDS011;56754;51.568;5.048;2023-04-15T01:51:17;6.27;;;2.63;;
69534;SDS011;56754;51.568;5.048;2023-04-15T01:53:42;8.13;;;2.58;;
69534;SDS011;56754;51.568;5.048;2023-04-15T01:56:07;7.50;;;2.40;;
69534;SDS011;56754;51.568;5.048;2023-04-15T01:58:33;7.50;;;2.60;;
69534;SDS011;56754;51.568;5.048;2023-04-15T02:00:58;6.53;;;2.73;;
69534;SDS011;56754;51.568;5.048;2023-04-15T02:03:24;8.53;;;2.87;;
69534;SDS011;56754;51.568;5.048;2023-04-15T02:05:49;6.20;;;2.70;;
69534;SDS011;56754;51.568;5.048;2023-04-15T02:08:14;8.40;;;2.83;;
69534;SDS011;56754;51.568;5.048;2023-04-15T02:10:40;7.13;;;2.73;;
69534;SDS011;56754;51.568;5.048;2023-04-15T02:13:05;7.30;;;2.57;;
69534;SDS011;56754;51.568;5.048;2023-04-15T02:15:31;6.13;;;2.58;;
69534;SDS011;56754;51.568;5.048;2023-04-15T02:17:56;6.57;;;2.67;;
69534;SDS011;56754;51.568;5.048;2023-04-15T02:20:22;8.13;;;2.50;;
69534;SDS011;56754;51.568;5.048;2023-04-15T02:22:47;7.73;;;2.60;;
69534;SDS011;56754;51.568;5.048;2023-04-15T02:25:13;6.25;;;2.72;;
69534;SDS011;56754;51.568;5.048;2023-04-15T02:27:39;5.65;;;2.40;;
69534;SDS011;56754;51.568;5.048;2023-04-15T02:30:04;7.37;;;2.60;;
69534;SDS011;56754;51.568;5.048;2023-04-15T02:32:30;6.70;;;2.55;;
69534;SDS011;56754;51.568;5.048;2023-04-15T02:34:55;6.17;;;2.80;;
69534;SDS011;56754;51.568;5.048;2023-04-15T02:37:21;7.83;;;3.00;;
69534;SDS011;56754;51.568;5.048;2023-04-15T02:39:46;6.53;;;2.67;;
69534;SDS011;56754;51.568;5.048;2023-04-15T02:42:11;7.37;;;2.33;;
69534;SDS011;56754;51.568;5.048;2023-04-15T02:44:37;7.70;;;2.83;;
69534;SDS011;56754;51.568;5.048;2023-04-15T02:47:02;6.30;;;2.37;;
69534;SDS011;56754;51.568;5.048;2023-04-15T02:49:27;6.03;;;2.70;;
69534;SDS011;56754;51.568;5.048;2023-04-15T02:51:53;7.83;;;2.90;;
69534;SDS011;56754;51.568;5.048;2023-04-15T02:54:18;11.57;;;3.37;;
69534;SDS011;56754;51.568;5.048;2023-04-15T02:56:44;7.78;;;2.97;;
69534;SDS011;56754;51.568;5.048;2023-04-15T02:59:11;7.30;;;2.53;;
69534;SDS011;56754;51.568;5.048;2023-04-15T03:01:36;8.00;;;2.90;;
69534;SDS011;56754;51.568;5.048;2023-04-15T03:04:02;6.13;;;2.90;;
69534;SDS011;56754;51.568;5.048;2023-04-15T03:06:27;6.73;;;2.77;;
69534;SDS011;56754;51.568;5.048;2023-04-15T03:08:53;7.47;;;2.90;;
69534;SDS011;56754;51.568;5.048;2023-04-15T03:11:18;8.33;;;3.00;;
69534;SDS011;56754;51.568;5.048;2023-04-15T03:13:44;6.07;;;2.87;;
69534;SDS011;56754;51.568;5.048;2023-04-15T03:16:09;8.00;;;2.88;;
69534;SDS011;56754;51.568;5.048;2023-04-15T03:18:35;9.53;;;3.40;;
69534;SDS011;56754;51.568;5.048;2023-04-15T03:21:00;6.87;;;2.93;;
69534;SDS011;56754;51.568;5.048;2023-04-15T03:23:25;6.97;;;3.20;;
69534;SDS011;56754;51.568;5.048;2023-04-15T03:25:51;7.00;;;3.00;;
69534;SDS011;56754;51.568;5.048;2023-04-15T03:28:16;6.70;;;3.00;;
69534;SDS011;56754;51.568;5.048;2023-04-15T03:30:41;7.77;;;2.83;;
69534;SDS011;56754;51.568;5.048;2023-04-15T03:33:09;7.97;;;3.20;;
69534;SDS011;56754;51.568;5.048;2023-04-15T03:35:35;5.50;;;2.67;;
69534;SDS011;56754;51.568;5.048;2023-04-15T03:38:00;7.70;;;3.00;;
69534;SDS011;56754;51.568;5.048;2023-04-15T03:40:25;8.20;;;3.40;;
69534;SDS011;56754;51.568;5.048;2023-04-15T03:42:50;7.03;;;2.80;;
69534;SDS011;56754;51.568;5.048;2023-04-15T03:45:16;7.53;;;2.97;;
69534;SDS011;56754;51.568;5.048;2023-04-15T03:47:41;6.47;;;3.10;;
69534;SDS011;56754;51.568;5.048;2023-04-15T03:50:07;5.43;;;2.80;;
69534;SDS011;56754;51.568;5.048;2023-04-15T03:52:32;6.35;;;3.28;;
69534;SDS011;56754;51.568;5.048;2023-04-15T03:54:57;8.13;;;3.07;;
69534;SDS011;56754;51.568;5.048;2023-04-15T03:57:23;7.10;;;3.30;;
69534;SDS011;56754;51.568;5.048;2023-04-15T03:59:48;6.53;;;3.00;;
69534;SDS011;56754;51.568;5.048;2023-04-15T04:02:13;6.70;;;3.17;;
69534;SDS011;56754;51.568;5.048;2023-04-15T04:04:39;5.80;;;3.20;;
69534;SDS011;56754;51.568;5.048;2023-04-15T04:07:04;6.63;;;3.13;;
69534;SDS011;56754;51.568;5.048;2023-04-15T04:09:29;7.10;;;3.20;;
69534;SDS011;56754;51.568;5.048;2023-04-15T04:11:54;5.63;;;2.95;;
69534;SDS011;56754;51.568;5.048;2023-04-15T04:14:20;6.73;;;2.80;;
69534;SDS011;56754;51.568;5.048;2023-04-15T04:16:45;6.37;;;3.17;;
69534;SDS011;56754;51.568;5.048;2023-04-15T04:19:10;5.33;;;2.87;;
69534;SDS011;56754;51.568;5.048;2023-04-15T04:21:36;7.37;;;3.23;;
69534;SDS011;56754;51.568;5.048;2023-04-15T04:24:01;6.90;;;3.20;;
69534;SDS011;56754;51.568;5.048;2023-04-15T04:26:26;5.63;;;3.10;;
69534;SDS011;56754;51.568;5.048;2023-04-15T04:28:51;5.90;;;3.20;;
69534;SDS011;56754;51.568;5.048;2023-04-15T04:31:17;6.97;;;2.70;;
69534;SDS011;56754;51.568;5.048;2023-04-15T04:33:42;7.07;;;3.03;;
69534;SDS011;56754;51.568;5.048;2023-04-15T04:36:08;7.43;;;3.17;;
69534;SDS011;56754;51.568;5.048;2023-04-15T04:38:33;7.63;;;3.20;;
69534;SDS011;56754;51.568;5.048;2023-04-15T04:40:58;6.63;;;2.90;;
69534;SDS011;56754;51.568;5.048;2023-04-15T04:43:24;6.50;;;3.30;;
69534;SDS011;56754;51.568;5.048;2023-04-15T04:45:49;6.93;;;3.13;;
69534;SDS011;56754;51.568;5.048;2023-04-15T04:48:14;5.57;;;2.70;;
69534;SDS011;56754;51.568;5.048;2023-04-15T04:50:40;7.53;;;3.53;;
69534;SDS011;56754;51.568;5.048;2023-04-15T04:53:05;5.43;;;3.03;;
69534;SDS011;56754;51.568;5.048;2023-04-15T04:55:30;7.63;;;2.93;;
69534;SDS011;56754;51.568;5.048;2023-04-15T04:57:56;6.43;;;2.90;;
69534;SDS011;56754;51.568;5.048;2023-04-15T05:00:21;5.60;;;2.70;;
69534;SDS011;56754;51.568;5.048;2023-04-15T05:02:46;6.93;;;3.13;;
69534;SDS011;56754;51.568;5.048;2023-04-15T05:05:12;7.07;;;3.50;;
69534;SDS011;56754;51.568;5.048;2023-04-15T05:07:37;6.77;;;3.03;;
69534;SDS011;56754;51.568;5.048;2023-04-15T05:10:03;7.35;;;3.03;;
69534;SDS011;56754;51.568;5.048;2023-04-15T05:12:28;6.23;;;3.43;;
69534;SDS011;56754;51.568;5.048;2023-04-15T05:14:53;7.47;;;3.70;;
69534;SDS011;56754;51.568;5.048;2023-04-15T05:17:19;6.67;;;3.30;;
69534;SDS011;56754;51.568;5.048;2023-04-15T05:19:44;6.63;;;3.43;;
69534;SDS011;56754;51.568;5.048;2023-04-15T05:22:09;8.55;;;3.80;;
69534;SDS011;56754;51.568;5.048;2023-04-15T05:24:34;8.97;;;3.70;;
69534;SDS011;56754;51.568;5.048;2023-04-15T05:27:03;6.40;;;3.47;;
69534;SDS011;56754;51.568;5.048;2023-04-15T05:29:28;7.40;;;3.30;;
69534;SDS011;56754;51.568;5.048;2023-04-15T05:31:54;6.67;;;3.10;;
69534;SDS011;56754;51.568;5.048;2023-04-15T05:34:20;9.18;;;3.60;;
69534;SDS011;56754;51.568;5.048;2023-04-15T05:36:45;5.93;;;3.27;;
69534;SDS011;56754;51.568;5.048;2023-04-15T05:39:10;7.07;;;3.27;;
69534;SDS011;56754;51.568;5.048;2023-04-15T05:41:35;6.17;;;3.40;;
69534;SDS011;56754;51.568;5.048;2023-04-15T05:44:01;7.87;;;3.33;;
69534;SDS011;56754;51.568;5.048;2023-04-15T05:46:26;10.43;;;3.93;;
69534;SDS011;56754;51.568;5.048;2023-04-15T05:48:51;7.33;;;3.30;;
69534;SDS011;56754;51.568;5.048;2023-04-15T05:51:17;7.47;;;3.70;;
69534;SDS011;56754;51.568;5.048;2023-04-15T05:53:42;7.20;;;3.87;;
69534;SDS011;56754;51.568;5.048;2023-04-15T05:56:07;6.28;;;3.22;;
69534;SDS011;56754;51.568;5.048;2023-04-15T05:58:32;7.03;;;3.67;;
69534;SDS011;56754;51.568;5.048;2023-04-15T06:00:58;5.77;;;3.27;;
69534;SDS011;56754;51.568;5.048;2023-04-15T06:03:23;6.73;;;3.57;;
69534;SDS011;56754;51.568;5.048;2023-04-15T06:05:48;6.47;;;3.30;;
69534;SDS011;56754;51.568;5.048;2023-04-15T06:08:14;6.47;;;3.33;;
69534;SDS011;56754;51.568;5.048;2023-04-15T06:10:39;7.20;;;3.40;;
69534;SDS011;56754;51.568;5.048;2023-04-15T06:13:04;6.68;;;3.13;;
69534;SDS011;56754;51.568;5.048;2023-04-15T06:15:30;8.37;;;3.50;;
69534;SDS011;56754;51.568;5.048;2023-04-15T06:17:55;8.80;;;3.87;;
69534;SDS011;56754;51.568;5.048;2023-04-15T06:20:21;6.72;;;3.28;;
69534;SDS011;56754;51.568;5.048;2023-04-15T06:22:46;8.20;;;3.50;;
69534;SDS011;56754;51.568;5.048;2023-04-15T06:25:12;7.87;;;3.60;;
69534;SDS011;56754;51.568;5.048;2023-04-15T06:27:37;7.67;;;3.77;;
69534;SDS011;56754;51.568;5.048;2023-04-15T06:30:03;7.57;;;3.30;;
69534;SDS011;56754;51.568;5.048;2023-04-15T06:32:28;6.97;;;3.35;;
69534;SDS011;56754;51.568;5.048;2023-04-15T06:34:54;7.53;;;3.47;;
69534;SDS011;56754;51.568;5.048;2023-04-15T06:37:19;7.22;;;3.60;;
69534;SDS011;56754;51.568;5.048;2023-04-15T06:39:44;6.37;;;3.00;;
69534;SDS011;56754;51.568;5.048;2023-04-15T06:42:10;6.17;;;2.90;;
69534;SDS011;56754;51.568;5.048;2023-04-15T06:44:35;5.80;;;3.10;;
69534;SDS011;56754;51.568;5.048;2023-04-15T06:47:00;7.90;;;3.37;;
69534;SDS011;56754;51.568;5.048;2023-04-15T06:49:26;6.67;;;2.93;;
69534;SDS011;56754;51.568;5.048;2023-04-15T06:51:51;7.33;;;3.37;;
69534;SDS011;56754;51.568;5.048;2023-04-15T06:54:16;6.27;;;2.83;;
69534;SDS011;56754;51.568;5.048;2023-04-15T06:56:42;7.63;;;2.93;;
69534;SDS011;56754;51.568;5.048;2023-04-15T06:59:07;5.97;;;2.57;;
69534;SDS011;56754;51.568;5.048;2023-04-15T07:01:32;6.27;;;2.67;;
69534;SDS011;56754;51.568;5.048;2023-04-15T07:03:58;7.00;;;2.80;;
69534;SDS011;56754;51.568;5.048;2023-04-15T07:06:23;6.17;;;2.83;;
69534;SDS011;56754;51.568;5.048;2023-04-15T07:08:48;6.72;;;3.05;;
69534;SDS011;56754;51.568;5.048;2023-04-15T07:11:14;6.17;;;2.73;;
69534;SDS011;56754;51.568;5.048;2023-04-15T07:13:39;6.10;;;2.50;;
69534;SDS011;56754;51.568;5.048;2023-04-15T07:16:04;6.10;;;2.40;;
69534;SDS011;56754;51.568;5.048;2023-04-15T07:18:30;6.27;;;2.40;;
69534;SDS011;56754;51.568;5.048;2023-04-15T07:20:55;5.00;;;2.50;;
69534;SDS011;56754;51.568;5.048;2023-04-15T07:23:20;5.60;;;2.57;;
69534;SDS011;56754;51.568;5.048;2023-04-15T07:25:45;5.68;;;2.63;;
69534;SDS011;56754;51.568;5.048;2023-04-15T07:28:11;7.03;;;2.50;;
69534;SDS011;56754;51.568;5.048;2023-04-15T07:30:36;5.10;;;2.30;;
69534;SDS011;56754;51.568;5.048;2023-04-15T07:33:02;6.03;;;2.40;;
69534;SDS011;56754;51.568;5.048;2023-04-15T07:35:27;5.80;;;2.58;;
69534;SDS011;56754;51.568;5.048;2023-04-15T07:37:52;5.63;;;2.40;;
69534;SDS011;56754;51.568;5.048;2023-04-15T07:40:18;5.33;;;2.50;;
69534;SDS011;56754;51.568;5.048;2023-04-15T07:42:43;5.37;;;2.30;;
69534;SDS011;56754;51.568;5.048;2023-04-15T07:45:09;4.87;;;2.23;;
69534;SDS011;56754;51.568;5.048;2023-04-15T07:47:34;5.95;;;2.38;;
69534;SDS011;56754;51.568;5.048;2023-04-15T07:50:00;5.40;;;2.17;;
69534;SDS011;56754;51.568;5.048;2023-04-15T07:52:25;5.43;;;2.40;;
69534;SDS011;56754;51.568;5.048;2023-04-15T07:54:50;5.37;;;2.27;;
69534;SDS011;56754;51.568;5.048;2023-04-15T07:57:16;5.22;;;2.63;;
69534;SDS011;56754;51.568;5.048;2023-04-15T07:59:41;5.67;;;2.17;;
69534;SDS011;56754;51.568;5.048;2023-04-15T08:02:06;5.87;;;2.43;;
69534;SDS011;56754;51.568;5.048;2023-04-15T08:04:31;4.60;;;1.93;;
69534;SDS011;56754;51.568;5.048;2023-04-15T08:06:57;4.33;;;1.80;;
69534;SDS011;56754;51.568;5.048;2023-04-15T08:09:22;5.23;;;2.17;;
69534;SDS011;56754;51.568;5.048;2023-04-15T08:11:47;4.80;;;2.17;;
69534;SDS011;56754;51.568;5.048;2023-04-15T08:14:13;4.68;;;1.95;;
69534;SDS011;56754;51.568;5.048;2023-04-15T08:16:38;5.00;;;2.27;;
69534;SDS011;56754;51.568;5.048;2023-04-15T08:19:04;5.80;;;2.20;;
69534;SDS011;56754;51.568;5.048;2023-04-15T08:21:29;5.03;;;2.33;;
69534;SDS011;56754;51.568;5.048;2023-04-15T08:23:55;5.20;;;2.10;;
69534;SDS011;56754;51.568;5.048;2023-04-15T08:26:20;4.77;;;1.80;;
69534;SDS011;56754;51.568;5.048;2023-04-15T08:28:46;4.50;;;1.90;;
69534;SDS011;56754;51.568;5.048;2023-04-15T08:31:13;5.03;;;2.10;;
69534;SDS011;56754;51.568;5.048;2023-04-15T08:33:39;3.83;;;1.50;;
69534;SDS011;56754;51.568;5.048;2023-04-15T08:36:04;5.57;;;2.05;;
69534;SDS011;56754;51.568;5.048;2023-04-15T08:38:30;5.23;;;2.30;;
69534;SDS011;56754;51.568;5.048;2023-04-15T08:40:55;4.47;;;1.77;;
69534;SDS011;56754;51.568;5.048;2023-04-15T08:43:26;6.15;;;2.50;;
69534;SDS011;56754;51.568;5.048;2023-04-15T08:45:53;6.00;;;2.90;;
69534;SDS011;56754;51.568;5.048;2023-04-15T08:48:18;5.80;;;2.88;;
69534;SDS011;56754;51.568;5.048;2023-04-15T08:50:45;6.20;;;2.70;;
69534;SDS011;56754;51.568;5.048;2023-04-15T08:53:12;5.93;;;3.07;;
69534;SDS011;56754;51.568;5.048;2023-04-15T08:55:41;6.35;;;2.97;;
69534;SDS011;56754;51.568;5.048;2023-04-15T08:58:10;6.30;;;2.70;;
69534;SDS011;56754;51.568;5.048;2023-04-15T09:00:36;7.38;;;2.55;;
69534;SDS011;56754;51.568;5.048;2023-04-15T09:03:02;6.40;;;3.00;;
69534;SDS011;56754;51.568;5.048;2023-04-15T09:05:30;6.22;;;2.70;;
69534;SDS011;56754;51.568;5.048;2023-04-15T09:07:57;5.50;;;2.55;;
69534;SDS011;56754;51.568;5.048;2023-04-15T09:10:22;6.60;;;3.10;;
69534;SDS011;56754;51.568;5.048;2023-04-15T09:12:47;6.17;;;3.10;;
69534;SDS011;56754;51.568;5.048;2023-04-15T09:15:13;5.43;;;2.47;;
69534;SDS011;56754;51.568;5.048;2023-04-15T09:17:42;5.68;;;2.42;;
69534;SDS011;56754;51.568;5.048;2023-04-15T09:20:09;5.70;;;2.43;;
69534;SDS011;56754;51.568;5.048;2023-04-15T09:22:36;5.28;;;2.20;;
69534;SDS011;56754;51.568;5.048;2023-04-15T09:25:02;4.75;;;2.08;;
69534;SDS011;56754;51.568;5.048;2023-04-15T09:27:28;5.40;;;2.30;;
69534;SDS011;56754;51.568;5.048;2023-04-15T09:29:53;5.10;;;2.20;;
69534;SDS011;56754;51.568;5.048;2023-04-15T09:32:19;5.03;;;1.90;;
69534;SDS011;56754;51.568;5.048;2023-04-15T09:34:44;4.90;;;2.27;;
69534;SDS011;56754;51.568;5.048;2023-04-15T09:37:09;4.30;;;1.70;;
69534;SDS011;56754;51.568;5.048;2023-04-15T09:39:48;4.93;;;2.10;;
69534;SDS011;56754;51.568;5.048;2023-04-15T09:42:14;4.37;;;1.70;;
69534;SDS011;56754;51.568;5.048;2023-04-15T09:44:39;4.30;;;1.65;;
69534;SDS011;56754;51.568;5.048;2023-04-15T09:47:05;5.13;;;1.90;;
69534;SDS011;56754;51.568;5.048;2023-04-15T09:49:30;4.70;;;1.60;;
69534;SDS011;56754;51.568;5.048;2023-04-15T09:51:59;5.47;;;1.73;;
69534;SDS011;56754;51.568;5.048;2023-04-15T09:54:35;4.03;;;1.55;;
69534;SDS011;56754;51.568;5.048;2023-04-15T09:57:05;4.97;;;1.63;;
69534;SDS011;56754;51.568;5.048;2023-04-15T09:59:31;3.70;;;1.38;;
69534;SDS011;56754;51.568;5.048;2023-04-15T10:01:56;4.10;;;1.50;;
69534;SDS011;56754;51.568;5.048;2023-04-15T10:04:22;4.40;;;1.40;;
69534;SDS011;56754;51.568;5.048;2023-04-15T10:06:49;3.75;;;1.30;;
69534;SDS011;56754;51.568;5.048;2023-04-15T10:09:15;4.68;;;1.70;;
69534;SDS011;56754;51.568;5.048;2023-04-15T10:11:40;5.45;;;1.80;;
69534;SDS011;56754;51.568;5.048;2023-04-15T10:14:06;4.37;;;1.67;;
69534;SDS011;56754;51.568;5.048;2023-04-15T10:16:33;4.38;;;1.55;;
69534;SDS011;56754;51.568;5.048;2023-04-15T10:19:02;4.57;;;1.30;;
69534;SDS011;56754;51.568;5.048;2023-04-15T10:21:29;3.47;;;1.50;;
69534;SDS011;56754;51.568;5.048;2023-04-15T10:23:55;4.27;;;1.20;;
69534;SDS011;56754;51.568;5.048;2023-04-15T10:26:22;3.97;;;1.23;;
69534;SDS011;56754;51.568;5.048;2023-04-15T10:28:48;4.38;;;1.23;;
69534;SDS011;56754;51.568;5.048;2023-04-15T10:31:13;3.47;;;1.17;;
69534;SDS011;56754;51.568;5.048;2023-04-15T10:33:40;3.25;;;1.27;;
69534;SDS011;56754;51.568;5.048;2023-04-15T10:36:08;2.63;;;1.02;;
69534;SDS011;56754;51.568;5.048;2023-04-15T10:38:35;4.93;;;1.27;;
69534;SDS011;56754;51.568;5.048;2023-04-15T10:41:18;5.40;;;1.42;;
69534;SDS011;56754;51.568;5.048;2023-04-15T10:43:53;3.70;;;1.53;;
69534;SDS011;56754;51.568;5.048;2023-04-15T10:46:21;3.63;;;1.38;;
69534;SDS011;56754;51.568;5.048;2023-04-15T10:48:52;3.88;;;1.10;;
69534;SDS011;56754;51.568;5.048;2023-04-15T10:51:28;3.75;;;1.10;;
69534;SDS011;56754;51.568;5.048;2023-04-15T10:53:55;3.90;;;1.00;;
69534;SDS011;56754;51.568;5.048;2023-04-15T10:56:21;5.13;;;1.20;;
69534;SDS011;56754;51.568;5.048;2023-04-15T10:58:47;2.30;;;0.68;;
69534;SDS011;56754;51.568;5.048;2023-04-15T11:01:12;2.10;;;0.73;;
69534;SDS011;56754;51.568;5.048;2023-04-15T11:03:38;3.30;;;0.97;;
69534;SDS011;56754;51.568;5.048;2023-04-15T11:06:06;3.47;;;0.80;;
69534;SDS011;56754;51.568;5.048;2023-04-15T11:09:05;4.45;;;1.10;;
69534;SDS011;56754;51.568;5.048;2023-04-15T11:14:26;3.50;;;1.13;;
69534;SDS011;56754;51.568;5.048;2023-04-15T11:16:51;3.80;;;1.00;;
69534;SDS011;56754;51.568;5.048;2023-04-15T11:19:17;3.83;;;1.23;;
69534;SDS011;56754;51.568;5.048;2023-04-15T11:21:42;4.13;;;1.40;;
69534;SDS011;56754;51.568;5.048;2023-04-15T11:24:07;4.22;;;1.20;;
69534;SDS011;56754;51.568;5.048;2023-04-15T11:26:33;3.73;;;1.00;;
69534;SDS011;56754;51.568;5.048;2023-04-15T11:28:58;5.80;;;1.47;;
69534;SDS011;56754;51.568;5.048;2023-04-15T11:31:25;2.87;;;1.10;;
69534;SDS011;56754;51.568;5.048;2023-04-15T11:33:53;3.35;;;1.08;;
69534;SDS011;56754;51.568;5.048;2023-04-15T11:36:19;2.93;;;1.00;;
69534;SDS011;56754;51.568;5.048;2023-04-15T11:38:47;3.60;;;1.00;;
69534;SDS011;56754;51.568;5.048;2023-04-15T11:41:12;3.67;;;1.20;;
69534;SDS011;56754;51.568;5.048;2023-04-15T11:43:38;3.67;;;1.00;;
69534;SDS011;56754;51.568;5.048;2023-04-15T11:46:03;4.00;;;1.07;;
69534;SDS011;56754;51.568;5.048;2023-04-15T11:48:33;3.60;;;1.30;;
69534;SDS011;56754;51.568;5.048;2023-04-15T11:51:03;4.40;;;1.35;;
69534;SDS011;56754;51.568;5.048;2023-04-15T11:53:49;2.83;;;0.93;;
69534;SDS011;56754;51.568;5.048;2023-04-15T11:56:22;3.10;;;1.10;;
69534;SDS011;56754;51.568;5.048;2023-04-15T11:58:53;4.65;;;1.38;;
69534;SDS011;56754;51.568;5.048;2023-04-15T12:01:19;5.03;;;1.10;;
69534;SDS011;56754;51.568;5.048;2023-04-15T12:03:45;3.30;;;0.93;;
69534;SDS011;56754;51.568;5.048;2023-04-15T12:13:53;2.88;;;0.85;;
69534;SDS011;56754;51.568;5.048;2023-04-15T12:16:20;1.85;;;0.50;;
69534;SDS011;56754;51.568;5.048;2023-04-15T12:18:47;2.97;;;0.80;;
69534;SDS011;56754;51.568;5.048;2023-04-15T12:21:17;2.70;;;0.90;;
69534;SDS011;56754;51.568;5.048;2023-04-15T12:23:49;1.47;;;0.50;;
69534;SDS011;56754;51.568;5.048;2023-04-15T12:26:16;2.65;;;0.77;;
69534;SDS011;56754;51.568;5.048;2023-04-15T12:28:42;3.63;;;0.90;;
69534;SDS011;56754;51.568;5.048;2023-04-15T12:31:08;3.50;;;0.93;;
69534;SDS011;56754;51.568;5.048;2023-04-15T12:33:34;2.10;;;0.70;;
69534;SDS011;56754;51.568;5.048;2023-04-15T12:35:59;3.03;;;0.90;;
69534;SDS011;56754;51.568;5.048;2023-04-15T12:38:25;3.38;;;1.00;;
69534;SDS011;56754;51.568;5.048;2023-04-15T12:40:50;3.43;;;1.10;;
69534;SDS011;56754;51.568;5.048;2023-04-15T12:43:15;1.93;;;0.70;;
69534;SDS011;56754;51.568;5.048;2023-04-15T12:45:41;1.97;;;0.60;;
69534;SDS011;56754;51.568;5.048;2023-04-15T12:48:06;1.88;;;0.60;;
69534;SDS011;56754;51.568;5.048;2023-04-15T12:50:32;2.90;;;0.70;;
69534;SDS011;56754;51.568;5.048;2023-04-15T12:52:57;2.83;;;0.60;;
69534;SDS011;56754;51.568;5.048;2023-04-15T12:55:22;5.13;;;0.80;;
69534;SDS011;56754;51.568;5.048;2023-04-15T12:57:48;2.27;;;0.77;;
69534;SDS011;56754;51.568;5.048;2023-04-15T13:00:13;2.03;;;0.60;;
69534;SDS011;56754;51.568;5.048;2023-04-15T13:02:39;2.88;;;0.65;;
69534;SDS011;56754;51.568;5.048;2023-04-15T13:05:04;2.20;;;0.70;;
69534;SDS011;56754;51.568;5.048;2023-04-15T13:07:30;2.25;;;0.60;;
69534;SDS011;56754;51.568;5.048;2023-04-15T13:09:55;3.10;;;0.70;;
69534;SDS011;56754;51.568;5.048;2023-04-15T13:12:20;2.37;;;0.70;;
69534;SDS011;56754;51.568;5.048;2023-04-15T13:14:46;2.90;;;0.87;;
69534;SDS011;56754;51.568;5.048;2023-04-15T13:17:11;1.70;;;0.60;;
69534;SDS011;56754;51.568;5.048;2023-04-15T13:19:37;2.07;;;0.70;;
69534;SDS011;56754;51.568;5.048;2023-04-15T13:22:02;2.58;;;0.98;;
69534;SDS011;56754;51.568;5.048;2023-04-15T13:24:28;2.23;;;0.73;;
69534;SDS011;56754;51.568;5.048;2023-04-15T13:26:53;2.42;;;0.70;;
69534;SDS011;56754;51.568;5.048;2023-04-15T13:29:18;1.87;;;0.60;;
69534;SDS011;56754;51.568;5.048;2023-04-15T13:31:44;2.53;;;0.70;;
69534;SDS011;56754;51.568;5.048;2023-04-15T13:34:09;2.30;;;0.60;;
69534;SDS011;56754;51.568;5.048;2023-04-15T13:36:34;2.43;;;0.67;;
69534;SDS011;56754;51.568;5.048;2023-04-15T13:39:00;2.57;;;0.67;;
69534;SDS011;56754;51.568;5.048;2023-04-15T13:41:25;3.00;;;0.70;;
69534;SDS011;56754;51.568;5.048;2023-04-15T13:43:50;2.23;;;0.70;;
69534;SDS011;56754;51.568;5.048;2023-04-15T13:46:15;2.42;;;0.43;;
69534;SDS011;56754;51.568;5.048;2023-04-15T13:48:41;1.97;;;0.50;;
69534;SDS011;56754;51.568;5.048;2023-04-15T13:51:06;3.50;;;0.73;;
69534;SDS011;56754;51.568;5.048;2023-04-15T13:53:32;1.73;;;0.53;;
69534;SDS011;56754;51.568;5.048;2023-04-15T13:55:57;1.83;;;0.60;;
69534;SDS011;56754;51.568;5.048;2023-04-15T13:58:23;2.07;;;0.53;;
69534;SDS011;56754;51.568;5.048;2023-04-15T14:00:48;2.30;;;0.60;;
69534;SDS011;56754;51.568;5.048;2023-04-15T14:03:13;2.07;;;0.50;;
69534;SDS011;56754;51.568;5.048;2023-04-15T14:05:38;1.30;;;0.40;;
69534;SDS011;56754;51.568;5.048;2023-04-15T14:08:04;1.93;;;0.50;;
69534;SDS011;56754;51.568;5.048;2023-04-15T14:10:29;2.37;;;0.53;;
69534;SDS011;56754;51.568;5.048;2023-04-15T14:12:54;2.17;;;0.60;;
69534;SDS011;56754;51.568;5.048;2023-04-15T14:15:20;2.60;;;0.60;;
69534;SDS011;56754;51.568;5.048;2023-04-15T14:17:45;2.60;;;0.70;;
69534;SDS011;56754;51.568;5.048;2023-04-15T14:20:10;2.40;;;0.50;;
69534;SDS011;56754;51.568;5.048;2023-04-15T14:22:36;1.70;;;0.50;;
69534;SDS011;56754;51.568;5.048;2023-04-15T14:25:01;2.17;;;0.53;;
69534;SDS011;56754;51.568;5.048;2023-04-15T14:27:27;2.00;;;0.67;;
69534;SDS011;56754;51.568;5.048;2023-04-15T14:29:52;1.33;;;0.33;;
69534;SDS011;56754;51.568;5.048;2023-04-15T14:32:17;2.50;;;0.50;;
69534;SDS011;56754;51.568;5.048;2023-04-15T14:34:43;2.07;;;0.43;;
69534;SDS011;56754;51.568;5.048;2023-04-15T14:37:08;1.50;;;0.50;;
69534;SDS011;56754;51.568;5.048;2023-04-15T14:39:33;2.60;;;0.57;;
69534;SDS011;56754;51.568;5.048;2023-04-15T14:41:59;4.77;;;0.60;;
69534;SDS011;56754;51.568;5.048;2023-04-15T14:44:24;1.90;;;0.40;;
69534;SDS011;56754;51.568;5.048;2023-04-15T14:46:50;1.77;;;0.40;;
69534;SDS011;56754;51.568;5.048;2023-04-15T14:49:15;1.30;;;0.40;;
69534;SDS011;56754;51.568;5.048;2023-04-15T14:51:41;1.65;;;0.47;;